Port Phillip Bay, Australia
Current Conditions -  °F | °C
As of 1:00 PM on Saturday 20 Dec 2014 (Local Time) from YMAV Reporting Station
Clear Clear  
Wind Chill: 72°   Ceiling: Unl
Heat Index: 72°   Visibility: 6mi
Dew Point: 50°   Wind: 8mph
Humidity: 46%   Direction: 300°WNW
Pressure: 30.06"   Gusts: NA
Location:  38.07°S, 144.85°E
Report Text: YMAV 200200Z AUTO 30007KT 230V340 9999 // NCD 22/10 Q1018
Loading
Personal Weather Stations






























Interactive Weather Map New forecast layout! Learn more

10-Day Weather Forecast

Advertisements
Track Severe Weather on mobile